Time;durP1;ratioP1;P1;durP2;ratioP2;P2;SDS_P1;SDS_P2;PMS_P1;PMS_P2;Temp;Humidity;BMP_temperature;BMP_pressure;BME280_temperature;BME280_humidity;BME280_pressure;Samples;Min_cycle;Max_cycle;Signal;HPM_P1;HPM_P2
2021/01/04 05:02:05;;;;;;;46.83;30.73;;;3.10;99.90;;;;;;5282233;23;21026;-64
2021/01/04 05:04:47;;;;;;;44.20;30.57;;;3.10;99.90;;;;;;4975963;28;20442;-65
2021/01/04 05:07:20;;;;;;;48.60;31.57;;;3.10;99.90;;;;;;4975826;28;20987;-64
2021/01/04 05:09:54;;;;;;;48.60;32.00;;;3.00;99.90;;;;;;4977427;28;20450;-64
2021/01/04 05:12:35;;;;;;;50.53;31.67;;;3.00;99.90;;;;;;4976633;28;20485;-65
2021/01/04 05:15:16;;;;;;;49.27;31.80;;;3.00;99.90;;;;;;4976212;28;20449;-66
2021/01/04 05:18:12;;;;;;;51.27;32.30;;;2.90;99.90;;;;;;4976282;28;20438;-66
2021/01/04 05:21:09;;;;;;;46.30;31.20;;;3.00;99.90;;;;;;4977063;28;20474;-66
2021/01/04 05:24:03;;;;;;;51.03;34.27;;;2.90;99.90;;;;;;4978508;28;20439;-66
2021/01/04 05:27:11;;;;;;;52.40;32.47;;;2.90;99.90;;;;;;4979925;28;20438;-63
2021/01/04 05:30:02;;;;;;;49.67;32.00;;;2.80;99.90;;;;;;4941691;28;20451;-63
2021/01/04 05:32:47;;;;;;;52.57;31.87;;;2.80;99.90;;;;;;4977093;28;20474;-64
2021/01/04 05:35:16;;;;;;;52.80;32.00;;;2.80;99.90;;;;;;4976078;28;20449;-64
2021/01/04 05:37:52;;;;;;;49.87;31.57;;;2.80;99.90;;;;;;4975825;28;20461;-65
2021/01/04 05:40:57;;;;;;;49.30;30.53;;;2.80;99.90;;;;;;4975769;28;20466;-64
2021/01/04 05:43:34;;;;;;;49.73;29.90;;;2.80;99.90;;;;;;4976126;28;20434;-64
2021/01/04 05:46:07;;;;;;;49.53;30.47;;;2.80;99.90;;;;;;4976039;28;20431;-65
2021/01/04 05:48:45;;;;;;;43.80;28.27;;;2.80;99.90;;;;;;4975613;28;20546;-64
2021/01/04 05:51:19;;;;;;;48.40;30.10;;;2.90;99.90;;;;;;4976837;28;20483;-64
2021/01/04 05:53:45;;;;;;;53.57;32.73;;;2.80;99.90;;;;;;4977093;28;20445;-65
2021/01/04 05:56:19;;;;;;;49.87;29.90;;;2.70;99.90;;;;;;4976365;28;20455;-64
2021/01/04 05:58:45;;;;;;;47.50;30.60;;;2.70;99.90;;;;;;4975798;28;20439;-64
2021/01/04 06:01:13;;;;;;;51.57;30.33;;;2.60;99.90;;;;;;4975130;28;20487;-67
2021/01/04 06:03:39;;;;;;;51.47;29.20;;;2.70;99.90;;;;;;4975355;28;21016;-64
2021/01/04 06:06:12;;;;;;;47.27;30.80;;;2.70;99.90;;;;;;4975563;28;20458;-65
2021/01/04 06:08:39;;;;;;;50.07;31.03;;;2.80;99.90;;;;;;4975226;28;20483;-64
2021/01/04 06:11:07;;;;;;;49.90;28.63;;;2.80;99.90;;;;;;4975944;28;20481;-65
2021/01/04 06:13:39;;;;;;;51.90;30.67;;;2.80;99.90;;;;;;4975966;28;20458;-64
2021/01/04 06:16:10;;;;;;;46.30;29.03;;;2.80;99.90;;;;;;4976546;28;20458;-65
2021/01/04 06:18:43;;;;;;;49.67;30.07;;;2.90;99.90;;;;;;4975807;28;20451;-65
2021/01/04 06:21:21;;;;;;;45.03;28.37;;;2.90;99.90;;;;;;4976199;28;20937;-64
2021/01/04 06:23:51;;;;;;;45.53;29.53;;;3.00;99.90;;;;;;4975592;28;20443;-66
2021/01/04 06:26:21;;;;;;;42.63;27.80;;;3.00;99.90;;;;;;4980067;28;20454;-65
2021/01/04 06:28:53;;;;;;;43.93;28.30;;;3.00;99.90;;;;;;4990370;28;20482;-65
2021/01/04 06:31:28;;;;;;;48.23;29.67;;;3.10;99.90;;;;;;4988038;28;20474;-66
2021/01/04 06:33:57;;;;;;;50.37;30.30;;;3.10;99.90;;;;;;4977152;28;20438;-66
2021/01/04 06:36:24;;;;;;;45.50;29.40;;;3.10;99.90;;;;;;4978773;28;20454;-65
2021/01/04 06:38:52;;;;;;;45.20;28.67;;;3.00;99.90;;;;;;4980039;28;20461;-65
2021/01/04 06:41:28;;;;;;;46.33;28.60;;;3.00;99.90;;;;;;4978993;28;20981;-65
2021/01/04 06:43:54;;;;;;;40.73;26.20;;;2.90;99.90;;;;;;4979266;28;20537;-65
2021/01/04 06:46:44;;;;;;;44.80;29.17;;;2.90;99.90;;;;;;4979029;28;20454;-66
2021/01/04 06:49:14;;;;;;;44.57;28.43;;;2.90;99.90;;;;;;4978844;28;20466;-66
2021/01/04 06:52:15;;;;;;;49.77;29.73;;;3.00;99.90;;;;;;4979082;28;20474;-65
2021/01/04 06:55:10;;;;;;;44.53;28.50;;;2.90;99.90;;;;;;4978988;28;20438;-65
2021/01/04 06:58:12;;;;;;;45.23;29.20;;;2.90;99.90;;;;;;4978696;28;20431;-65
2021/01/04 07:01:09;;;;;;;43.63;27.57;;;2.90;99.90;;;;;;4978317;28;20477;-65
2021/01/04 07:03:50;;;;;;;43.57;27.40;;;2.80;99.90;;;;;;4978094;28;20451;-65
2021/01/04 07:06:46;;;;;;;47.03;28.50;;;2.80;99.90;;;;;;4978876;28;20438;-64
2021/01/04 07:09:37;;;;;;;42.83;28.10;;;2.90;99.90;;;;;;4978004;28;20462;-64
2021/01/04 07:12:11;;;;;;;44.73;28.00;;;2.90;99.90;;;;;;4978219;28;20482;-65
2021/01/04 07:15:03;;;;;;;41.70;27.80;;;2.80;99.90;;;;;;4978192;28;20442;-64
2021/01/04 07:17:44;;;;;;;43.53;28.77;;;2.80;99.90;;;;;;4978428;28;20453;-65
2021/01/04 07:20:25;;;;;;;48.33;30.80;;;2.80;99.90;;;;;;4978146;28;20497;-65
2021/01/04 07:23:06;;;;;;;49.53;29.40;;;2.80;99.90;;;;;;4978484;28;20439;-64
2021/01/04 07:25:41;;;;;;;46.67;28.37;;;2.90;99.90;;;;;;4978318;28;20442;-64
2021/01/04 07:28:33;;;;;;;50.55;34.53;;;2.80;99.90;;;;;;4977627;28;20821;-66
2021/01/04 07:31:03;;;;;;;51.47;30.43;;;2.80;99.90;;;;;;4978522;28;20247;-65
2021/01/04 07:33:37;;;;;;;49.00;30.97;;;2.80;99.90;;;;;;4978187;28;20446;-64
2021/01/04 07:36:13;;;;;;;47.20;30.27;;;2.90;99.90;;;;;;4978044;28;20442;-65
2021/01/04 07:39:09;;;;;;;45.00;28.13;;;2.80;99.90;;;;;;4977950;28;20435;-65
2021/01/04 07:41:47;;;;;;;47.43;30.93;;;2.90;99.90;;;;;;4968884;28;20887;-64
2021/01/04 07:44:47;;;;;;;38.27;25.30;;;2.90;99.90;;;;;;4977180;28;20439;-65
2021/01/04 07:47:44;;;;;;;43.80;27.50;;;2.90;99.90;;;;;;4977368;28;20427;-65
2021/01/04 07:50:44;;;;;;;45.83;28.00;;;3.00;99.90;;;;;;4977858;28;20811;-66
2021/01/04 07:53:34;;;;;;;40.77;26.63;;;2.90;99.90;;;;;;4977691;28;20447;-64
2021/01/04 07:56:39;;;;;;;46.50;27.27;;;3.00;99.90;;;;;;4978089;28;20450;-65
2021/01/04 07:59:41;;;;;;;42.60;27.30;;;3.00;99.90;;;;;;4976695;28;20446;-65
2021/01/04 08:02:49;;;;;;;44.60;27.50;;;3.20;99.90;;;;;;4975701;28;20479;-66
2021/01/04 08:05:54;;;;;;;42.40;27.37;;;3.20;99.90;;;;;;4976451;28;20459;-65
2021/01/04 08:08:33;;;;;;;41.10;27.40;;;3.30;99.90;;;;;;4976264;28;20550;-65
2021/01/04 08:11:32;;;;;;;40.67;27.07;;;3.30;99.90;;;;;;4976174;28;20474;-64
2021/01/04 08:14:34;;;;;;;39.60;25.90;;;3.20;99.90;;;;;;4976431;28;20450;-65
2021/01/04 08:17:05;;;;;;;39.67;27.00;;;3.20;99.90;;;;;;4978346;28;20825;-65
2021/01/04 08:19:35;;;;;;;40.80;28.57;;;3.20;99.90;;;;;;4981367;28;20442;-64
2021/01/04 08:22:15;;;;;;;45.70;27.20;;;3.10;99.90;;;;;;4978516;28;20482;-64
2021/01/04 08:24:44;;;;;;;41.30;27.37;;;3.20;99.90;;;;;;4978955;28;20791;-64
2021/01/04 08:27:26;;;;;;;43.47;26.80;;;3.10;99.90;;;;;;4979009;28;20462;-64
2021/01/04 08:30:04;;;;;;;38.90;28.10;;;3.20;99.90;;;;;;4977056;28;20438;-64
2021/01/04 08:32:34;;;;;;;42.30;25.53;;;3.10;99.90;;;;;;4977325;28;20529;-65
2021/01/04 08:35:10;;;;;;;41.40;27.60;;;3.20;99.90;;;;;;4977016;28;20446;-65
2021/01/04 08:37:40;;;;;;;38.33;25.90;;;3.20;99.90;;;;;;4977257;28;20443;-65
2021/01/04 08:40:25;;;;;;;38.17;26.07;;;3.20;99.90;;;;;;4975927;28;20470;-65
2021/01/04 08:43:03;;;;;;;42.53;26.87;;;3.20;99.90;;;;;;4976215;28;20813;-64
2021/01/04 08:45:32;;;;;;;41.97;27.87;;;3.30;99.90;;;;;;4975692;28;20453;-66
2021/01/04 08:47:59;;;;;;;37.77;25.33;;;3.20;99.90;;;;;;4976154;28;20574;-65
2021/01/04 08:50:35;;;;;;;42.70;27.83;;;3.20;99.90;;;;;;4975811;28;20775;-65
2021/01/04 08:53:15;;;;;;;35.67;24.83;;;3.20;99.90;;;;;;4975481;28;20960;-66
2021/01/04 08:55:41;;;;;;;40.27;26.40;;;3.30;99.90;;;;;;4975814;28;20497;-66
2021/01/04 08:58:25;;;;;;;38.87;26.60;;;3.20;99.90;;;;;;4975140;28;20510;-66
2021/01/04 09:01:03;;;;;;;37.20;25.10;;;3.10;99.90;;;;;;4975660;28;20491;-66
2021/01/04 09:03:33;;;;;;;44.17;27.47;;;3.30;99.90;;;;;;4975554;28;20846;-66
2021/01/04 09:06:11;;;;;;;38.17;25.07;;;3.20;99.90;;;;;;4976405;28;20478;-66
2021/01/04 09:08:47;;;;;;;41.93;27.93;;;3.20;99.90;;;;;;4976423;28;20466;-66
2021/01/04 09:11:13;;;;;;;38.37;26.27;;;3.20;99.90;;;;;;4975802;28;20470;-66
2021/01/04 09:13:40;;;;;;;44.80;28.97;;;3.00;99.90;;;;;;4976098;28;20465;-63
2021/01/04 09:16:12;;;;;;;44.47;28.30;;;2.90;99.90;;;;;;4975996;28;20956;-65
2021/01/04 09:18:43;;;;;;;40.63;28.00;;;3.00;99.90;;;;;;4975335;28;20451;-65
2021/01/04 09:21:25;;;;;;;40.10;27.13;;;3.10;99.90;;;;;;4977695;28;20534;-66
2021/01/04 09:23:52;;;;;;;45.30;28.30;;;3.00;99.90;;;;;;4975513;28;20439;-65
2021/01/04 09:26:28;;;;;;;42.37;27.07;;;3.00;99.90;;;;;;4975257;28;20439;-66
2021/01/04 09:29:06;;;;;;;46.33;28.20;;;3.00;99.90;;;;;;4975236;28;20869;-66
2021/01/04 09:31:33;;;;;;;40.00;27.00;;;3.00;99.90;;;;;;4975056;28;20489;-65
2021/01/04 09:34:00;;;;;;;44.93;29.20;;;3.00;99.90;;;;;;4976590;28;20491;-65
2021/01/04 09:36:26;;;;;;;36.37;26.17;;;3.00;99.90;;;;;;4975339;28;20458;-65
2021/01/04 09:39:07;;;;;;;41.70;28.50;;;3.00;99.90;;;;;;4975088;28;20455;-65
2021/01/04 09:41:33;;;;;;;39.33;26.70;;;2.90;99.90;;;;;;4974747;28;20482;-66
2021/01/04 09:44:05;;;;;;;41.93;27.47;;;3.60;99.90;;;;;;4975048;28;20945;-66
2021/01/04 09:46:41;;;;;;;39.53;27.30;;;4.00;99.90;;;;;;4975248;28;20455;-66
2021/01/04 09:49:13;;;;;;;37.60;27.20;;;4.10;99.90;;;;;;4974699;28;20505;-64
2021/01/04 09:51:44;;;;;;;31.90;25.50;;;4.10;99.90;;;;;;4974810;28;20824;-64
2021/01/04 09:54:15;;;;;;;30.80;24.70;;;4.10;99.90;;;;;;4975841;28;20439;-64
2021/01/04 09:56:42;;;;;;;32.50;25.20;;;4.30;99.90;;;;;;4975350;28;20489;-62
2021/01/04 09:59:10;;;;;;;37.20;26.80;;;4.40;99.90;;;;;;4975553;28;20438;-64
2021/01/04 10:01:46;;;;;;;33.23;25.23;;;4.70;99.90;;;;;;4974882;28;20497;-66
2021/01/04 10:04:12;;;;;;;33.00;24.00;;;4.80;99.90;;;;;;4975351;28;20458;-64
2021/01/04 10:06:41;;;;;;;36.27;26.47;;;4.60;99.90;;;;;;4975317;28;20463;-65
2021/01/04 10:09:17;;;;;;;36.77;25.17;;;4.50;99.90;;;;;;4980541;28;20478;-64
2021/01/04 10:11:46;;;;;;;31.90;24.70;;;4.50;99.90;;;;;;4996062;28;20470;-65
2021/01/04 10:14:13;;;;;;;33.17;24.80;;;4.50;99.90;;;;;;4996645;28;20509;-66
2021/01/04 10:16:44;;;;;;;36.27;27.03;;;4.40;99.90;;;;;;4996490;28;20450;-66
2021/01/04 10:19:16;;;;;;;34.13;24.20;;;4.40;99.90;;;;;;4990843;28;20435;-66
2021/01/04 10:21:51;;;;;;;36.80;25.63;;;4.30;99.90;;;;;;4979978;28;20474;-66
2021/01/04 10:24:20;;;;;;;37.97;25.60;;;4.20;99.90;;;;;;4979785;28;20533;-66
2021/01/04 10:26:49;;;;;;;35.03;25.07;;;4.10;99.90;;;;;;4979896;28;20465;-66
2021/01/04 10:29:19;;;;;;;34.43;25.67;;;4.10;99.90;;;;;;4979034;28;20479;-66
2021/01/04 10:31:45;;;;;;;32.93;24.07;;;4.10;99.90;;;;;;4978841;28;20511;-67
2021/01/04 10:34:13;;;;;;;34.80;26.10;;;4.00;99.90;;;;;;4978642;28;20573;-65
2021/01/04 10:36:49;;;;;;;34.03;25.53;;;3.90;99.90;;;;;;4980412;28;20525;-64
2021/01/04 10:39:20;;;;;;;34.50;24.83;;;3.90;99.90;;;;;;4981020;28;20442;-65
2021/01/04 10:41:47;;;;;;;36.17;24.53;;;3.70;99.90;;;;;;4980487;28;20509;-64
2021/01/04 10:44:21;;;;;;;37.20;27.33;;;3.70;99.90;;;;;;4979540;28;20509;-64
2021/01/04 10:46:57;;;;;;;33.87;24.73;;;3.70;99.90;;;;;;4978971;28;20443;-64
2021/01/04 10:49:27;;;;;;;39.93;27.17;;;3.70;99.90;;;;;;4978918;28;20458;-64
2021/01/04 10:51:54;;;;;;;34.13;24.80;;;3.60;99.90;;;;;;4978944;28;20833;-63
2021/01/04 10:54:35;;;;;;;39.40;26.80;;;3.70;99.90;;;;;;4979008;28;20529;-66
2021/01/04 10:57:04;;;;;;;29.57;22.87;;;3.60;99.90;;;;;;4981375;28;20443;-65
2021/01/04 10:59:37;;;;;;;35.43;25.90;;;3.50;99.90;;;;;;4978655;28;20454;-65
2021/01/04 11:02:04;;;;;;;36.60;26.40;;;3.60;99.90;;;;;;4978094;28;20517;-65
2021/01/04 11:04:31;;;;;;;36.60;25.37;;;3.50;99.90;;;;;;4978934;28;20466;-65
2021/01/04 11:07:08;;;;;;;35.77;25.00;;;3.40;99.90;;;;;;4979013;28;20454;-65
2021/01/04 11:09:37;;;;;;;35.17;24.80;;;3.40;99.90;;;;;;4978342;28;20470;-64
2021/01/04 11:12:08;;;;;;;35.57;25.00;;;3.40;99.90;;;;;;4978366;28;20475;-66
2021/01/04 11:14:34;;;;;;;34.87;25.67;;;3.40;99.90;;;;;;4978586;28;20439;-65
2021/01/04 11:17:18;;;;;;;38.60;26.03;;;3.40;99.90;;;;;;4978133;28;20462;-65
2021/01/04 11:19:44;;;;;;;36.37;25.00;;;3.40;99.90;;;;;;4978092;28;20559;-65
2021/01/04 11:22:22;;;;;;;37.83;25.23;;;3.50;99.90;;;;;;4978590;28;20965;-65
2021/01/04 11:24:49;;;;;;;34.27;23.80;;;3.50;99.90;;;;;;4978732;28;20443;-65
2021/01/04 11:27:16;;;;;;;36.50;23.73;;;3.60;99.90;;;;;;4979058;28;20459;-66
2021/01/04 11:29:43;;;;;;;38.13;25.30;;;3.40;99.90;;;;;;4977968;28;20497;-64
2021/01/04 11:32:12;;;;;;;32.17;23.67;;;3.40;99.90;;;;;;4978113;28;20837;-65
2021/01/04 11:34:42;;;;;;;35.30;24.20;;;3.40;99.90;;;;;;4978354;28;20454;-65
2021/01/04 11:37:09;;;;;;;37.13;25.77;;;3.30;99.90;;;;;;4977941;28;20481;-65
2021/01/04 11:39:35;;;;;;;36.50;24.20;;;3.30;99.90;;;;;;4978184;28;20455;-66
2021/01/04 11:42:03;;;;;;;34.00;24.17;;;3.40;99.90;;;;;;4978164;28;20483;-66
2021/01/04 11:44:29;;;;;;;36.20;25.90;;;3.40;99.90;;;;;;4977868;28;20458;-65
2021/01/04 11:46:55;;;;;;;36.13;24.80;;;3.50;99.90;;;;;;4980084;28;20455;-65
2021/01/04 11:49:22;;;;;;;32.10;24.03;;;3.60;99.90;;;;;;4990099;28;20475;-65
2021/01/04 11:51:50;;;;;;;34.33;24.30;;;3.70;99.90;;;;;;4988779;28;20475;-65
2021/01/04 11:54:16;;;;;;;33.53;22.30;;;3.80;99.90;;;;;;4986965;28;20976;-64
2021/01/04 11:56:43;;;;;;;32.43;22.87;;;3.80;99.90;;;;;;4985797;28;20462;-66
2021/01/04 11:59:10;;;;;;;28.80;22.40;;;3.80;99.90;;;;;;4978238;28;20451;-65
2021/01/04 12:01:37;;;;;;;25.97;21.47;;;3.90;99.90;;;;;;4978309;28;20537;-65
2021/01/04 12:04:04;;;;;;;30.40;22.77;;;3.90;99.90;;;;;;4984939;28;20462;-65
2021/01/04 12:06:31;;;;;;;32.23;22.83;;;3.90;99.90;;;;;;4991496;28;20472;-64
2021/01/04 12:08:57;;;;;;;33.10;24.13;;;3.70;99.90;;;;;;4991838;28;20483;-65
2021/01/04 12:11:24;;;;;;;30.80;23.60;;;3.80;99.90;;;;;;4991300;28;20475;-65
2021/01/04 12:13:51;;;;;;;34.30;22.93;;;3.80;99.90;;;;;;4991145;28;20454;-66
2021/01/04 12:16:18;;;;;;;27.33;21.13;;;3.80;99.90;;;;;;4987522;28;20462;-66
2021/01/04 12:18:45;;;;;;;31.63;23.30;;;3.90;99.90;;;;;;4976476;28;20490;-66
2021/01/04 12:21:13;;;;;;;27.23;21.80;;;3.90;99.90;;;;;;4976854;28;20485;-65
2021/01/04 12:23:40;;;;;;;31.20;22.43;;;3.80;99.90;;;;;;4976495;28;20461;-66
2021/01/04 12:26:10;;;;;;;31.80;22.77;;;3.80;99.90;;;;;;4990338;23;20884;-64
2021/01/04 12:28:37;;;;;;;35.73;22.70;;;3.80;99.90;;;;;;4975987;28;20474;-62
2021/01/04 12:31:05;;;;;;;31.20;20.87;;;3.90;99.90;;;;;;4975957;28;20446;-63
2021/01/04 12:33:32;;;;;;;28.37;21.77;;;3.80;99.90;;;;;;4975277;28;20505;-64
2021/01/04 12:35:58;;;;;;;30.80;22.30;;;3.80;99.90;;;;;;4975870;28;20478;-63
2021/01/04 12:38:25;;;;;;;28.67;21.73;;;3.80;99.90;;;;;;4976035;28;20455;-63
2021/01/04 12:40:51;;;;;;;33.40;23.10;;;3.80;99.90;;;;;;4975887;28;20455;-63
2021/01/04 12:43:17;;;;;;;29.77;22.60;;;3.80;99.90;;;;;;4975544;28;20800;-63
2021/01/04 12:45:44;;;;;;;32.80;22.93;;;3.90;99.90;;;;;;4975778;28;20482;-63
2021/01/04 12:48:10;;;;;;;26.93;21.80;;;3.90;99.90;;;;;;4975669;28;20478;-63
2021/01/04 12:50:37;;;;;;;32.43;24.00;;;3.90;99.90;;;;;;4975263;28;20489;-63
2021/01/04 12:53:03;;;;;;;28.50;21.63;;;3.90;99.90;;;;;;4982218;28;20465;-63
2021/01/04 12:55:30;;;;;;;31.63;22.50;;;3.90;99.90;;;;;;4975862;28;20873;-64
2021/01/04 12:58:03;;;;;;;31.87;22.80;;;4.00;99.90;;;;;;4975619;28;20463;-63
2021/01/04 13:00:29;;;;;;;38.43;22.40;;;4.00;99.90;;;;;;4975622;28;20490;-63
2021/01/04 13:02:56;;;;;;;31.20;22.50;;;3.90;99.90;;;;;;4975337;28;20455;-63
2021/01/04 13:05:22;;;;;;;33.93;21.20;;;4.00;99.90;;;;;;4975333;28;20485;-63
2021/01/04 13:07:49;;;;;;;31.37;23.70;;;4.00;99.90;;;;;;4974837;28;20458;-62
2021/01/04 13:10:16;;;;;;;28.10;22.00;;;4.00;99.90;;;;;;4975311;28;20459;-62
2021/01/04 13:12:43;;;;;;;30.40;22.60;;;4.10;99.90;;;;;;4975121;28;20454;-64
2021/01/04 13:15:11;;;;;;;28.83;21.67;;;4.10;99.90;;;;;;4974728;28;20479;-64
2021/01/04 13:17:37;;;;;;;27.80;22.47;;;4.10;99.90;;;;;;4974840;28;20482;-63
2021/01/04 13:20:05;;;;;;;29.33;23.00;;;4.10;99.90;;;;;;4975019;28;20457;-64
2021/01/04 13:22:31;;;;;;;28.90;23.33;;;4.00;99.90;;;;;;4975008;28;20810;-64
2021/01/04 13:24:58;;;;;;;31.53;23.70;;;4.10;99.90;;;;;;4974690;28;20483;-62
2021/01/04 13:27:25;;;;;;;29.30;22.70;;;4.00;99.90;;;;;;4975045;28;20459;-63
2021/01/04 13:29:52;;;;;;;28.97;21.47;;;4.00;99.90;;;;;;4975160;28;20475;-63
2021/01/04 13:32:19;;;;;;;28.70;20.00;;;3.90;99.90;;;;;;4974625;28;20461;-63
2021/01/04 13:34:46;;;;;;;30.83;21.53;;;3.90;99.90;;;;;;4975151;28;20474;-62
2021/01/04 13:37:14;;;;;;;30.13;21.60;;;3.90;99.90;;;;;;4975227;28;20455;-63
2021/01/04 13:39:40;;;;;;;30.17;22.80;;;3.80;99.90;;;;;;4974432;28;20450;-62
2021/01/04 13:42:09;;;;;;;29.23;22.20;;;3.70;99.90;;;;;;4974986;28;20454;-63
2021/01/04 13:44:35;;;;;;;;;;;3.70;99.90;;;;;;4976428;28;20471;-64
2021/01/04 13:47:02;;;;;;;;;;;3.70;99.90;;;;;;4975320;28;20248;-63
2021/01/04 13:49:28;;;;;;;;;;;3.60;99.90;;;;;;4974863;28;20261;-64
2021/01/04 13:51:55;;;;;;;30.10;22.20;;;3.60;99.90;;;;;;4974727;28;20233;-64
2021/01/04 13:54:21;;;;;;;31.17;20.97;;;3.70;99.90;;;;;;4974758;28;20475;-64
2021/01/04 13:56:47;;;;;;;31.33;21.33;;;3.60;99.90;;;;;;4974713;28;20439;-64
2021/01/04 13:59:14;;;;;;;32.33;22.30;;;3.60;99.90;;;;;;4974775;28;20511;-64
2021/01/04 14:01:42;;;;;;;32.67;23.47;;;3.60;99.90;;;;;;4974692;28;20459;-64
2021/01/04 14:04:08;;;;;;;27.27;21.10;;;3.60;99.90;;;;;;4974794;28;20455;-62
2021/01/04 14:06:38;;;;;;;28.73;20.50;;;3.60;99.90;;;;;;4975127;28;20820;-64
2021/01/04 14:09:05;;;;;;;27.37;20.90;;;3.70;99.90;;;;;;4974991;28;20541;-64
2021/01/04 14:11:31;;;;;;;29.50;23.07;;;3.70;99.90;;;;;;4974806;28;20463;-63
2021/01/04 14:13:57;;;;;;;26.40;20.10;;;3.50;99.90;;;;;;4974734;28;20454;-63
2021/01/04 14:16:25;;;;;;;27.53;20.97;;;3.60;99.90;;;;;;4974569;28;20534;-64
2021/01/04 14:18:52;;;;;;;27.97;21.00;;;3.60;99.90;;;;;;4974578;28;20454;-64
2021/01/04 14:21:18;;;;;;;28.50;21.77;;;3.60;99.90;;;;;;4975116;28;20802;-64
2021/01/04 14:23:45;;;;;;;29.30;21.73;;;3.70;99.90;;;;;;4985249;28;20454;-64
2021/01/04 14:26:11;;;;;;;30.87;21.27;;;3.70;99.90;;;;;;4975392;28;20493;-63
2021/01/04 14:28:37;;;;;;;28.80;20.33;;;3.70;99.90;;;;;;4974624;28;20479;-64
2021/01/04 14:31:04;;;;;;;25.57;19.30;;;3.60;99.90;;;;;;4974636;28;20450;-63
2021/01/04 14:33:31;;;;;;;26.40;20.60;;;3.60;99.90;;;;;;4974517;28;20869;-63
2021/01/04 14:35:57;;;;;;;27.60;19.87;;;3.60;99.90;;;;;;4975356;28;20481;-63
2021/01/04 14:38:23;;;;;;;28.80;19.80;;;3.60;99.90;;;;;;4974714;28;20450;-63
2021/01/04 14:40:49;;;;;;;29.20;21.30;;;3.50;99.90;;;;;;4974302;28;20459;-63
2021/01/04 14:43:16;;;;;;;27.70;20.10;;;3.50;99.90;;;;;;4974594;28;20481;-63
2021/01/04 14:45:42;;;;;;;32.13;22.00;;;3.50;99.90;;;;;;4974467;28;20478;-64
2021/01/04 14:48:08;;;;;;;29.90;23.27;;;3.50;99.90;;;;;;4974251;28;20489;-65
2021/01/04 14:50:35;;;;;;;33.03;23.27;;;3.30;99.90;;;;;;4974387;28;20829;-63
2021/01/04 14:53:01;;;;;;;33.80;23.37;;;3.30;99.90;;;;;;4974198;28;20505;-64
2021/01/04 14:55:27;;;;;;;33.73;25.03;;;3.30;99.90;;;;;;4974580;28;20835;-63
2021/01/04 14:57:54;;;;;;;33.17;24.67;;;3.30;99.90;;;;;;4977998;28;20458;-63
2021/01/04 15:00:20;;;;;;;36.90;27.17;;;3.20;99.90;;;;;;4978198;28;20455;-65
2021/01/04 15:02:47;;;;;;;42.93;27.20;;;3.20;99.90;;;;;;4978020;28;20463;-64
2021/01/04 15:05:13;;;;;;;35.23;26.37;;;3.20;99.90;;;;;;4978154;28;20926;-65
2021/01/04 15:07:40;;;;;;;35.10;24.93;;;3.10;99.90;;;;;;4978490;28;20451;-65
2021/01/04 15:10:07;;;;;;;37.57;27.00;;;3.20;99.90;;;;;;4978436;28;20490;-65
2021/01/04 15:12:34;;;;;;;36.93;29.13;;;3.00;99.90;;;;;;4977453;28;20803;-63
2021/01/04 15:15:01;;;;;;;36.43;26.93;;;3.10;99.90;;;;;;4977408;28;20482;-63
2021/01/04 15:17:27;;;;;;;35.93;27.63;;;3.00;99.90;;;;;;4977427;28;20455;-63
2021/01/04 15:19:54;;;;;;;37.10;26.07;;;3.00;99.90;;;;;;4977474;28;20435;-63
2021/01/04 15:22:20;;;;;;;35.00;24.37;;;3.00;99.90;;;;;;4977291;28;20525;-63
2021/01/04 15:24:49;;;;;;;36.27;26.80;;;2.90;99.90;;;;;;4977124;28;20482;-63
2021/01/04 15:27:15;;;;;;;32.17;25.90;;;2.90;99.90;;;;;;4977155;28;20458;-63
2021/01/04 15:29:42;;;;;;;36.70;25.70;;;2.90;99.90;;;;;;4977215;28;20479;-63
2021/01/04 15:32:09;;;;;;;31.97;25.43;;;2.90;99.90;;;;;;4977669;28;20462;-63
2021/01/04 15:34:35;;;;;;;36.80;24.93;;;2.80;99.90;;;;;;4977097;28;20479;-63
2021/01/04 15:37:02;;;;;;;35.20;25.27;;;2.80;99.90;;;;;;4977111;28;20458;-64
2021/01/04 15:39:29;;;;;;;35.60;26.17;;;2.80;99.90;;;;;;4977276;28;20457;-63
2021/01/04 15:41:58;;;;;;;34.00;24.33;;;2.70;99.90;;;;;;4976981;28;20458;-63
2021/01/04 15:44:26;;;;;;;29.63;21.93;;;2.70;99.90;;;;;;4976703;28;20977;-63
2021/01/04 15:46:53;;;;;;;32.53;23.33;;;2.60;99.90;;;;;;4976841;28;20457;-63
2021/01/04 15:49:20;;;;;;;31.43;23.57;;;2.70;99.90;;;;;;4976975;28;20474;-63
2021/01/04 15:51:47;;;;;;;24.63;20.10;;;2.60;99.90;;;;;;4977911;28;20454;-63
2021/01/04 15:54:14;;;;;;;26.50;20.37;;;2.60;99.90;;;;;;4984143;28;20865;-64
2021/01/04 15:56:46;;;;;;;26.20;19.90;;;2.60;99.90;;;;;;4979976;28;20455;-63
2021/01/04 15:59:13;;;;;;;26.50;20.53;;;2.60;99.90;;;;;;4976379;28;20439;-63
2021/01/04 16:01:39;;;;;;;24.80;19.00;;;2.50;99.90;;;;;;4977287;28;20517;-64
2021/01/04 16:04:06;;;;;;;26.30;18.87;;;2.50;99.90;;;;;;4976675;28;20455;-63
2021/01/04 16:06:32;;;;;;;24.70;18.10;;;2.40;99.90;;;;;;4976826;28;20493;-63
2021/01/04 16:08:59;;;;;;;23.27;18.57;;;2.40;99.90;;;;;;4976557;28;20482;-64
2021/01/04 16:11:25;;;;;;;23.50;18.30;;;2.30;99.90;;;;;;4976396;28;20510;-64
2021/01/04 16:13:51;;;;;;;26.30;18.67;;;2.40;99.90;;;;;;4976402;28;20455;-64
2021/01/04 16:16:21;;;;;;;25.17;17.23;;;2.40;99.90;;;;;;4976400;28;20474;-64
2021/01/04 16:18:48;;;;;;;21.67;16.30;;;2.30;99.90;;;;;;4976398;28;20829;-64
2021/01/04 16:21:14;;;;;;;24.67;19.40;;;2.20;99.90;;;;;;4976942;28;20454;-63
2021/01/04 16:23:41;;;;;;;21.23;16.93;;;2.30;99.90;;;;;;4976603;28;20454;-64
2021/01/04 16:26:07;;;;;;;21.90;16.20;;;2.30;99.90;;;;;;4976694;28;20494;-64
2021/01/04 16:28:34;;;;;;;20.87;16.23;;;2.30;99.90;;;;;;4976561;28;20483;-64
2021/01/04 16:31:01;;;;;;;19.10;15.07;;;2.30;99.90;;;;;;4976779;28;20457;-64
2021/01/04 16:33:29;;;;;;;20.30;15.50;;;2.20;99.90;;;;;;4976775;28;20509;-65
2021/01/04 16:35:56;;;;;;;18.37;14.83;;;2.20;99.90;;;;;;4976296;28;20483;-64
2021/01/04 16:38:22;;;;;;;16.30;13.17;;;2.20;99.90;;;;;;4975925;28;20459;-63
2021/01/04 16:40:48;;;;;;;17.70;13.77;;;2.20;99.90;;;;;;4976026;28;20513;-64
2021/01/04 16:43:14;;;;;;;19.20;15.20;;;2.20;99.90;;;;;;4975973;28;20873;-63
2021/01/04 16:45:41;;;;;;;17.47;13.17;;;2.20;99.90;;;;;;4976063;28;20474;-63
2021/01/04 16:48:08;;;;;;;16.50;14.03;;;2.10;99.90;;;;;;4975899;28;20459;-63
2021/01/04 16:50:35;;;;;;;14.10;11.50;;;2.10;99.90;;;;;;4975717;28;20509;-63
2021/01/04 16:53:01;;;;;;;18.17;14.13;;;2.10;99.90;;;;;;4975904;28;20455;-63
2021/01/04 16:55:28;;;;;;;17.40;13.40;;;2.10;99.90;;;;;;4975688;28;20486;-64
2021/01/04 16:57:54;;;;;;;17.17;12.40;;;2.10;99.90;;;;;;4975225;28;20454;-64
2021/01/04 17:00:20;;;;;;;13.73;12.00;;;2.10;99.90;;;;;;4975571;28;20521;-65
2021/01/04 17:02:47;;;;;;;17.17;13.10;;;2.20;99.90;;;;;;4975566;28;20443;-63
2021/01/04 17:05:13;;;;;;;16.07;13.00;;;2.20;99.90;;;;;;4975699;28;20598;-64
2021/01/04 17:07:40;;;;;;;17.50;14.57;;;2.20;99.90;;;;;;4975598;28;20454;-64
2021/01/04 17:10:07;;;;;;;14.30;12.47;;;2.20;99.90;;;;;;4975371;28;20482;-65
2021/01/04 17:12:34;;;;;;;16.47;13.00;;;2.20;99.90;;;;;;4975234;28;20962;-64
2021/01/04 17:15:01;;;;;;;15.90;12.90;;;2.20;99.90;;;;;;4975394;28;20549;-63
2021/01/04 17:17:27;;;;;;;15.60;12.00;;;2.20;99.90;;;;;;4975392;28;20553;-63
2021/01/04 17:19:53;;;;;;;16.37;13.20;;;2.20;99.90;;;;;;4975206;28;20458;-65
2021/01/04 17:22:19;;;;;;;16.60;12.70;;;2.20;99.90;;;;;;4975619;28;20466;-64
2021/01/04 17:24:46;;;;;;;17.40;13.70;;;2.20;99.90;;;;;;4980518;28;20482;-63
2021/01/04 17:27:13;;;;;;;13.97;12.10;;;2.20;99.90;;;;;;4977922;28;20459;-64
2021/01/04 17:29:39;;;;;;;15.40;12.60;;;2.20;99.90;;;;;;4975448;28;20478;-63
2021/01/04 17:32:06;;;;;;;16.10;13.10;;;2.10;99.90;;;;;;4975193;28;20454;-63
2021/01/04 17:34:32;;;;;;;16.43;13.27;;;2.00;99.90;;;;;;4975291;28;20470;-63
2021/01/04 17:36:58;;;;;;;18.73;13.83;;;2.10;99.90;;;;;;4974969;28;20458;-62
2021/01/04 17:39:24;;;;;;;19.57;14.20;;;2.00;99.90;;;;;;4975031;28;20451;-62
2021/01/04 17:41:57;;;;;;;19.33;14.70;;;2.10;99.90;;;;;;4974934;28;20458;-63
2021/01/04 17:44:24;;;;;;;19.27;15.30;;;2.10;99.90;;;;;;4975133;28;20474;-63
2021/01/04 17:46:51;;;;;;;17.13;13.73;;;2.10;99.90;;;;;;4978111;28;20489;-63
2021/01/04 17:49:17;;;;;;;18.20;14.07;;;2.10;99.90;;;;;;4985605;28;20510;-63
2021/01/04 17:51:48;;;;;;;18.17;14.73;;;2.10;99.90;;;;;;4984415;28;20454;-63
2021/01/04 17:54:14;;;;;;;23.90;14.90;;;2.10;99.90;;;;;;4980462;28;20484;-63
2021/01/04 17:56:46;;;;;;;21.70;14.90;;;2.10;99.90;;;;;;4977143;28;20478;-63
2021/01/04 17:59:13;;;;;;;19.87;13.70;;;2.10;99.90;;;;;;4976914;28;20435;-63
2021/01/04 18:01:39;;;;;;;18.60;14.20;;;2.10;99.90;;;;;;4976429;28;20454;-62